Flight Track Log - Related Links

Times and Time Zones

All times are in EDT time to prevent confusion due to time zone crossing. See the N588AC flight status page for this flight to view local times or setup timezone preferences in your user account.

Time Position Orientation Groundspeed Altitude Reporting Facility
EDT Latitude Longitude Course Direction KTS MPH feet Rate Location/Type
Sat 08:21:00 AM 37.1800 -80.4981 215° Southwest 210 242 6,000  Level Washington Center
Sat 08:21:58 AM 37.1392 -80.5631 232° Southwest 252 290 5,900 508 Descending Atlanta Center
Sat 08:22:58 AM 37.1122 -80.6422 247° West 259 298 7,000 1,900 Climbing Atlanta Center
Sat 08:23:58 AM 37.0869 -80.7058 244° Southwest 246 283 9,700 2,500 Climbing Atlanta Center
Sat 08:24:58 AM 37.0344 -80.7681 223° Southwest 246 283 12,000 2,200 Climbing Atlanta Center
Sat 08:25:58 AM 36.9839 -80.8322 225° Southwest 256 295 14,100 2,300 Climbing Atlanta Center
Sat 08:26:00 AM 36.9829 -80.7963 215° Southwest  Level FlightAware Approximate
Sat 08:26:58 AM 36.9292 -80.8892 220° Southwest 262 302 16,600  Level Atlanta Center
Sat 08:27:58 AM 36.8683 -80.9539 220° Southwest 268 308 19,000 2,200 Climbing Atlanta Center
Sat 08:28:58 AM 36.8136 -81.0156 222° Southwest 268 308 21,000 1,700 Climbing Atlanta Center
Sat 08:29:58 AM 36.7708 -81.0639 222° Southwest 268 308 22,400 1,600 Climbing Atlanta Center
Sat 08:30:58 AM 36.7100 -81.1361 224° Southwest 263 303 24,200 1,500 Climbing Atlanta Center
Sat 08:31:58 AM 36.6531 -81.1975 221° Southwest 268 308 25,400 1,550 Climbing Atlanta Center
Sat 08:32:58 AM 36.5981 -81.2564 221° Southwest 268 308 27,300 1,650 Climbing Atlanta Center
Sat 08:33:58 AM 36.5475 -81.3203 225° Southwest 263 303 28,700 1,400 Climbing Atlanta Center
Sat 08:34:58 AM 36.4903 -81.3764 218° Southwest 268 308 30,100 1,500 Climbing Atlanta Center
Sat 08:35:58 AM 36.4353 -81.4400 223° Southwest 273 314 31,700 950 Climbing Atlanta Center
Sat 08:36:58 AM 36.3783 -81.5064 223° Southwest 278 320 32,000 350 Climbing Atlanta Center
Sat 08:37:58 AM 36.3111 -81.5808 222° Southwest 309 356 32,400 850 Climbing Atlanta Center
Sat 08:38:58 AM 36.2539 -81.6442 222° Southwest 318 366 33,700 1,250 Climbing Atlanta Center
Sat 08:39:58 AM 36.1925 -81.7078 220° Southwest 308 354 34,900 1,100 Climbing Atlanta Center
Sat 08:40:58 AM 36.1314 -81.7764 222° Southwest 298 343 35,900 550 Climbing Atlanta Center
Sat 08:41:58 AM 36.0678 -81.8425 220° Southwest 299 344 36,000 50 Climbing Atlanta Center
Sat 08:42:58 AM 35.9981 -81.9083 217° Southwest 319 367 36,000  Level Atlanta Center
Sat 08:43:58 AM 35.9261 -81.9744 217° Southwest 324 373 36,000  Level Atlanta Center
Sat 08:44:58 AM 35.8544 -82.0431 218° Southwest 330 380 36,000  Level Atlanta Center
Sat 08:45:58 AM 35.7825 -82.1139 219° Southwest 330 380 36,000  Level Atlanta Center
Sat 08:46:58 AM 35.7064 -82.1822 216° Southwest 340 391 36,000  Level Atlanta Center
Sat 08:47:58 AM 35.6261 -82.2528 216° Southwest 333 383 36,000 -450 Level Atlanta Center
Sat 08:48:58 AM 35.5519 -82.3208 217° Southwest 338 389 35,100 -1,050 Descending Atlanta Center
Sat 08:49:58 AM 35.4778 -82.3914 218° Southwest 338 389 33,900 -1,350 Descending Atlanta Center
Sat 08:50:58 AM 35.4056 -82.4617 218° Southwest 338 389 32,400 -1,500 Descending Atlanta Center
Sat 08:51:58 AM 35.3333 -82.5267 216° Southwest 333 383 30,900 -1,500 Descending Atlanta Center
Sat 08:52:58 AM 35.2506 -82.5686 202° Southwest 327 376 29,400 -950 Descending Atlanta Center
Sat 08:53:58 AM 35.1569 -82.5933 192° South 335 386 29,000 3,300 Descending Atlanta Center
Sat 08:54:58 AM 35.0611 -82.6203 193° South 348 400 36,000 -1,200 Climbing Atlanta Center
Sat 08:55:58 AM 34.9678 -82.6522 196° South 348 400 26,600 -5,950 Descending Atlanta Center
Sat 08:56:58 AM 34.9206 -82.7469 239° Southwest 336 387 24,100 -2,450 Descending Atlanta Center
Sat 08:57:58 AM 34.8589 -82.8364 230° Southwest 332 382 21,700 -2,450 Descending Atlanta Center
Sat 08:58:58 AM 34.7928 -82.9056 221° Southwest 327 376 19,200 -2,450 Descending Atlanta Center
Sat 08:59:58 AM 34.7456 -82.9719 229° Southwest 306 352 16,800 -2,500 Descending Atlanta Center
Sat 09:00:58 AM 34.7003 -83.0483 234° Southwest 285 328 14,200 -2,350 Descending Atlanta Center
Sat 09:01:58 AM 34.6611 -83.1297 240° Southwest 280 322 12,100 -2,050 Descending Atlanta Center
Sat 09:02:58 AM 34.6178 -83.2033 234° Southwest 272 313 10,100 -1,950 Descending Atlanta Center
Sat 09:03:58 AM 34.5828 -83.2692 237° Southwest 264 304 8,200 -1,550 Descending Atlanta Center
Sat 09:04:58 AM 34.5417 -83.3428 236° Southwest 264 304 7,000 -600 Descending Atlanta Center
Sat 09:05:58 AM 34.5003 -83.4086 233° Southwest 259 298 7,000 -50 Level Atlanta Center
Sat 09:06:58 AM 34.4400 -83.4594 215° Southwest 248 285 6,900 -350 Descending Atlanta Center
Sat 09:07:58 AM 34.3756 -83.5128 214° Southwest 256 295 6,300 -950 Descending Atlanta Center
Sat 09:08:58 AM 34.3214 -83.5583 215° Southwest 247 284 5,000 -1,650 Descending Atlanta Center
Sat 09:09:58 AM 34.2692 -83.5864 204° Southwest 220 253 3,000 -1,400 Descending Atlanta Center
Sat 09:10:58 AM 34.2172 -83.6042 196° South 202 232 2,200 16,500 Descending Atlanta Center
Sat 09:11:58 AM 34.1650 -83.6244 198° South 202 232 36,000 16,900 Climbing Atlanta Center
Sat 09:12:58 AM 34.1131 -83.6425 196° South 202 232 36,000  Level Atlanta Center
Sat 09:14:00 AM 34.1668 -83.5737 202° Southwest  Level Estimated
Sat 09:21:00 AM 34.1667 -83.5500 202° Southwest  Level FlightAware Approximate
Sat 09:22:00 AM 34.1761 -83.5617 202° Southwest  Level Estimated

Login

Don't have an account? Register now (free) for customized features, flight alerts, and more!